Time;durP1;ratioP1;P1;durP2;ratioP2;P2;SDS_P1;SDS_P2;PMS_P1;PMS_P2;Temp;Humidity;BMP_temperature;BMP_pressure;BME280_temperature;BME280_humidity;BME280_pressure;Samples;Min_cycle;Max_cycle;Signal;HPM_P1;HPM_P2
2021/08/25 00:01:34;;;;;;;;;;;23.40;49.50;;;;;;1506125;77;699;-59
2021/08/25 00:03:36;;;;;;;;;;;23.50;49.60;;;;;;1501339;77;1137;-59
2021/08/25 00:05:38;;;;;;;;;;;23.40;49.40;;;;;;1502711;77;746;-59
2021/08/25 00:07:40;;;;;;;;;;;23.40;49.40;;;;;;1497548;78;728;-59
2021/08/25 00:09:42;;;;;;;;;;;23.50;49.50;;;;;;1508307;77;767;-59
2021/08/25 00:11:44;;;;;;;;;;;23.50;49.60;;;;;;1498923;77;699;-58
2021/08/25 00:13:45;;;;;;;;;;;23.50;49.60;;;;;;1499225;77;1180;-58
2021/08/25 00:15:47;;;;;;;;;;;23.50;49.50;;;;;;1495434;77;790;-60
2021/08/25 00:17:49;;;;;;;;;;;23.50;49.50;;;;;;1497965;77;654;-58
2021/08/25 00:19:51;;;;;;;;;;;23.50;49.50;;;;;;1503032;77;1948;-59
2021/08/25 00:21:54;;;;;;;;;;;23.60;49.40;;;;;;1499838;77;682;-59
2021/08/25 00:23:56;;;;;;;;;;;23.50;49.40;;;;;;1500628;77;1156;-58
2021/08/25 00:25:58;;;;;;;;;;;23.60;49.40;;;;;;1500148;77;683;-59
2021/08/25 00:28:00;;;;;;;;;;;23.50;49.40;;;;;;1497708;77;796;-59
2021/08/25 00:30:03;;;;;;;;;;;23.50;49.40;;;;;;1496489;77;628;-58
2021/08/25 00:32:06;;;;;;;;;;;23.50;49.40;;;;;;1500206;77;626;-59
2021/08/25 00:34:08;;;;;;;;;;;23.60;49.30;;;;;;1504341;77;1070;-59
2021/08/25 00:36:10;;;;;;;;;;;23.50;49.20;;;;;;1503146;77;713;-59
2021/08/25 00:38:12;;;;;;;;;;;23.50;49.20;;;;;;1506143;77;720;-59
2021/08/25 00:40:14;;;;;;;;;;;23.50;49.20;;;;;;1506856;78;1932;-59
2021/08/25 00:42:15;;;;;;;;;;;23.50;49.20;;;;;;1504685;77;791;-59
2021/08/25 00:44:17;;;;;;;;;;;23.50;49.20;;;;;;1491242;77;1166;-59
2021/08/25 00:46:19;;;;;;;;;;;23.50;49.20;;;;;;1498260;77;764;-59
2021/08/25 00:48:21;;;;;;;;;;;23.50;49.20;;;;;;1499391;78;735;-59
2021/08/25 00:50:23;;;;;;;;;;;23.50;49.20;;;;;;1496106;78;732;-59
2021/08/25 00:52:25;;;;;;;;;;;23.50;49.10;;;;;;1498604;77;736;-59
2021/08/25 00:54:27;;;;;;;;;;;23.50;49.20;;;;;;1502600;77;1073;-59
2021/08/25 00:56:29;;;;;;;;;;;23.50;49.20;;;;;;1517172;78;793;-60
2021/08/25 00:58:31;;;;;;;;;;;23.50;49.10;;;;;;1522425;77;703;-59
2021/08/25 01:00:34;;;;;;;;;;;23.60;49.10;;;;;;1492875;77;1948;-60
2021/08/25 01:02:40;;;;;;;;;;;23.50;49.10;;;;;;1507616;77;1217;-59
2021/08/25 01:04:46;;;;;;;;;;;23.50;49.10;;;;;;1502283;78;608;-60
2021/08/25 01:06:49;;;;;;;;;;;23.50;49.00;;;;;;1498212;76;735;-60
2021/08/25 01:08:52;;;;;;;;;;;23.50;49.10;;;;;;1492041;78;690;-59
2021/08/25 01:10:55;;;;;;;;;;;23.50;49.00;;;;;;1503332;77;780;-59
2021/08/25 01:13:00;;;;;;;;;;;23.50;49.00;;;;;;1506187;77;1792;-58
2021/08/25 01:15:02;;;;;;;;;;;23.50;48.90;;;;;;1491009;77;669;-59
2021/08/25 01:17:04;;;;;;;;;;;23.50;48.90;;;;;;1523468;77;721;-59
2021/08/25 01:19:07;;;;;;;;;;;23.50;49.00;;;;;;1503540;76;702;-58
2021/08/25 01:21:09;;;;;;;;;;;23.50;48.90;;;;;;1489770;79;1950;-59
2021/08/25 01:23:11;;;;;;;;;;;23.50;48.90;;;;;;1506326;77;1151;-59
2021/08/25 01:25:13;;;;;;;;;;;23.50;48.90;;;;;;1497666;77;792;-58
2021/08/25 01:27:16;;;;;;;;;;;23.50;48.90;;;;;;1498842;77;752;-58
2021/08/25 01:29:19;;;;;;;;;;;23.50;48.90;;;;;;1502570;77;796;-59
2021/08/25 01:31:23;;;;;;;;;;;23.50;48.90;;;;;;1496719;77;958;-60
2021/08/25 01:33:26;;;;;;;;;;;23.50;48.90;;;;;;1500394;78;1101;-59
2021/08/25 01:35:35;;;;;;;;;;;23.50;49.00;;;;;;1501824;77;855;-60
2021/08/25 01:37:37;;;;;;;;;;;23.50;49.00;;;;;;1481832;77;1174;-60
2021/08/25 01:39:39;;;;;;;;;;;23.50;49.10;;;;;;1498781;77;736;-59
2021/08/25 01:41:41;;;;;;;;;;;23.50;49.00;;;;;;1497239;77;1954;-60
2021/08/25 01:43:43;;;;;;;;;;;23.40;48.90;;;;;;1487071;77;1150;-60
2021/08/25 01:45:46;;;;;;;;;;;23.50;49.10;;;;;;1516025;77;672;-60
2021/08/25 01:47:47;;;;;;;;;;;23.50;49.20;;;;;;1511175;77;700;-60
2021/08/25 01:49:50;;;;;;;;;;;23.50;49.20;;;;;;1520444;77;702;-59
2021/08/25 01:51:57;;;;;;;;;;;23.50;49.10;;;;;;1508922;77;738;-60
2021/08/25 01:53:56;;;;;;;;;;;23.50;49.10;;;;;;1489253;77;1377;-59
2021/08/25 01:55:58;;;;;;;;;;;23.50;49.10;;;;;;1554963;75;3129;-60
2021/08/25 01:58:00;;;;;;;;;;;23.50;49.00;;;;;;1557985;75;867;-59
2021/08/25 02:00:02;;;;;;;;;;;23.50;49.10;;;;;;1555412;75;1904;-59
2021/08/25 02:02:04;;;;;;;;;;;23.50;49.10;;;;;;1558097;75;790;-60
2021/08/25 02:04:05;;;;;;;;;;;23.50;49.10;;;;;;1550654;74;1187;-60
2021/08/25 02:06:07;;;;;;;;;;;23.50;49.00;;;;;;1556303;74;797;-61
2021/08/25 02:08:11;;;;;;;;;;;23.50;49.00;;;;;;1553109;74;766;-60
2021/08/25 02:10:13;;;;;;;;;;;23.50;49.00;;;;;;1563547;74;1922;-60
2021/08/25 02:12:15;;;;;;;;;;;23.50;49.00;;;;;;1556952;74;729;-60
2021/08/25 02:14:16;;;;;;;;;;;23.50;49.00;;;;;;1567947;75;1033;-60
2021/08/25 02:16:18;;;;;;;;;;;23.50;49.00;;;;;;1553765;74;571;-60
2021/08/25 02:18:20;;;;;;;;;;;23.50;49.00;;;;;;1557937;74;803;-60
2021/08/25 02:20:22;;;;;;;;;;;23.60;48.90;;;;;;1554593;74;1938;-60
2021/08/25 02:22:24;;;;;;;;;;;23.50;49.00;;;;;;1537228;74;836;-60
2021/08/25 02:24:26;;;;;;;;;;;23.50;49.00;;;;;;1545224;75;1076;-59
2021/08/25 02:26:28;;;;;;;;;;;23.50;49.00;;;;;;1551822;74;760;-60
2021/08/25 02:28:30;;;;;;;;;;;23.50;49.00;;;;;;1552511;74;832;-60
2021/08/25 02:30:31;;;;;;;;;;;23.50;48.90;;;;;;1556511;74;760;-60
2021/08/25 02:32:33;;;;;;;;;;;23.50;49.00;;;;;;1558758;74;1128;-60
2021/08/25 02:34:35;;;;;;;;;;;23.50;49.00;;;;;;1551396;75;815;-60
2021/08/25 02:36:37;;;;;;;;;;;23.50;48.90;;;;;;1556879;75;668;-60
2021/08/25 02:38:39;;;;;;;;;;;23.50;48.90;;;;;;1558914;74;746;-61
2021/08/25 02:40:42;;;;;;;;;;;23.60;48.90;;;;;;1560227;75;1934;-60
2021/08/25 02:42:43;;;;;;;;;;;23.50;48.90;;;;;;1551220;74;1152;-62
2021/08/25 02:44:45;;;;;;;;;;;23.50;49.00;;;;;;1547612;75;774;-63
2021/08/25 02:46:47;;;;;;;;;;;23.60;48.90;;;;;;1557116;74;739;-62
2021/08/25 02:48:49;;;;;;;;;;;23.50;48.90;;;;;;1559751;74;752;-62
2021/08/25 02:50:51;;;;;;;;;;;23.50;48.90;;;;;;1570082;74;787;-63
2021/08/25 02:52:53;;;;;;;;;;;23.50;48.90;;;;;;1552747;75;1100;-62
2021/08/25 02:54:55;;;;;;;;;;;23.50;48.90;;;;;;1550391;74;763;-62
2021/08/25 02:56:56;;;;;;;;;;;23.60;48.90;;;;;;1557256;74;604;-62
2021/08/25 02:58:58;;;;;;;;;;;23.50;49.00;;;;;;1554136;74;820;-61
2021/08/25 03:01:00;;;;;;;;;;;23.60;48.90;;;;;;1546957;74;1916;-62
2021/08/25 03:03:02;;;;;;;;;;;23.60;48.90;;;;;;1538643;74;1157;-61
2021/08/25 03:05:04;;;;;;;;;;;23.50;48.90;;;;;;1549198;74;726;-62
2021/08/25 03:07:06;;;;;;;;;;;23.50;48.90;;;;;;1558411;74;601;-61
2021/08/25 03:09:08;;;;;;;;;;;23.60;48.80;;;;;;1559912;75;777;-61
2021/08/25 03:11:10;;;;;;;;;;;23.50;48.90;;;;;;1553572;74;851;-63
2021/08/25 03:13:12;;;;;;;;;;;23.60;48.90;;;;;;1543744;75;1161;-62
2021/08/25 03:15:14;;;;;;;;;;;23.50;48.90;;;;;;1558957;74;744;-62
2021/08/25 03:17:16;;;;;;;;;;;23.60;48.80;;;;;;1543698;74;724;-63
2021/08/25 03:19:18;;;;;;;;;;;23.60;48.80;;;;;;1557880;74;791;-61
2021/08/25 03:21:20;;;;;;;;;;;23.60;48.80;;;;;;1554571;74;1940;-62
2021/08/25 03:23:22;;;;;;;;;;;23.60;48.80;;;;;;1547173;75;1260;-61
2021/08/25 03:25:23;;;;;;;;;;;23.60;48.80;;;;;;1548925;74;838;-61
2021/08/25 03:27:25;;;;;;;;;;;23.50;48.80;;;;;;1556535;74;621;-61
2021/08/25 03:29:27;;;;;;;;;;;23.50;48.80;;;;;;1547759;74;788;-62
2021/08/25 03:31:29;;;;;;;;;;;23.60;48.80;;;;;;1559092;74;736;-61
2021/08/25 03:33:31;;;;;;;;;;;23.60;48.80;;;;;;1557115;74;1129;-61
2021/08/25 03:35:33;;;;;;;;;;;23.50;48.80;;;;;;1563867;74;801;-61
2021/08/25 03:37:38;;;;;;;;;;;23.50;48.80;;;;;;1572676;74;796;-60
2021/08/25 03:39:39;;;;;;;;;;;23.60;48.80;;;;;;1560695;74;1679;-61
2021/08/25 03:41:40;;;;;;;;;;;23.50;48.80;;;;;;1554350;75;1948;-61
2021/08/25 03:43:42;;;;;;;;;;;23.50;48.80;;;;;;1554562;75;1062;-60
2021/08/25 03:45:44;;;;;;;;;;;23.50;48.70;;;;;;1550648;74;739;-61
2021/08/25 03:47:46;;;;;;;;;;;23.50;48.70;;;;;;1552502;75;798;-61
2021/08/25 03:49:48;;;;;;;;;;;23.50;48.80;;;;;;1555428;74;669;-61
2021/08/25 03:51:50;;;;;;;;;;;23.60;48.70;;;;;;1555622;75;771;-60
2021/08/25 03:53:52;;;;;;;;;;;23.60;48.60;;;;;;1554910;74;1129;-61
2021/08/25 03:55:54;;;;;;;;;;;23.50;48.60;;;;;;1556270;74;790;-61
2021/08/25 03:57:55;;;;;;;;;;;23.60;48.60;;;;;;1552574;74;677;-60
2021/08/25 03:59:57;;;;;;;;;;;23.50;48.60;;;;;;1552351;75;753;-60
2021/08/25 04:01:59;;;;;;;;;;;23.50;48.50;;;;;;1548772;74;1944;-60
2021/08/25 04:04:05;;;;;;;;;;;23.50;48.50;;;;;;1570638;74;1176;-60
2021/08/25 04:06:05;;;;;;;;;;;23.50;48.50;;;;;;1551122;74;1616;-60
2021/08/25 04:08:06;;;;;;;;;;;23.50;48.50;;;;;;1546992;74;777;-60
2021/08/25 04:10:09;;;;;;;;;;;23.50;48.50;;;;;;1550493;74;722;-60
2021/08/25 04:12:10;;;;;;;;;;;23.50;48.40;;;;;;1546291;75;671;-61
2021/08/25 04:14:12;;;;;;;;;;;23.60;48.40;;;;;;1565660;74;1163;-60
2021/08/25 04:16:14;;;;;;;;;;;23.50;48.40;;;;;;1572004;74;808;-60
2021/08/25 04:18:16;;;;;;;;;;;23.50;48.40;;;;;;1551239;74;725;-60
2021/08/25 04:20:18;;;;;;;;;;;23.50;48.40;;;;;;1563334;74;849;-61
2021/08/25 04:22:20;;;;;;;;;;;23.60;48.40;;;;;;1540856;74;1941;-60
2021/08/25 04:24:22;;;;;;;;;;;23.50;48.40;;;;;;1558559;74;1118;-61
2021/08/25 04:26:24;;;;;;;;;;;23.50;48.40;;;;;;1555478;74;778;-60
2021/08/25 04:28:25;;;;;;;;;;;23.60;48.40;;;;;;1548633;74;767;-60
2021/08/25 04:30:27;;;;;;;;;;;23.50;48.50;;;;;;1550209;74;782;-60
2021/08/25 04:32:29;;;;;;;;;;;23.50;48.60;;;;;;1555320;74;712;-60
2021/08/25 04:34:31;;;;;;;;;;;23.60;48.60;;;;;;1559119;74;1141;-60
2021/08/25 04:36:33;;;;;;;;;;;23.60;48.60;;;;;;1557321;74;746;-60
2021/08/25 04:38:35;;;;;;;;;;;23.60;48.60;;;;;;1563550;74;812;-60
2021/08/25 04:40:37;;;;;;;;;;;23.50;48.60;;;;;;1552511;74;731;-61
2021/08/25 04:42:38;;;;;;;;;;;23.50;48.50;;;;;;1550032;75;1946;-60
2021/08/25 04:44:40;;;;;;;;;;;23.60;48.50;;;;;;1546312;74;655;-60
2021/08/25 04:46:42;;;;;;;;;;;23.60;48.40;;;;;;1551968;74;742;-62
2021/08/25 04:48:44;;;;;;;;;;;23.50;48.40;;;;;;1557352;74;809;-62
2021/08/25 04:50:47;;;;;;;;;;;23.50;48.40;;;;;;1563667;74;721;-62
2021/08/25 04:52:49;;;;;;;;;;;23.50;48.40;;;;;;1561963;74;1083;-62
2021/08/25 04:54:50;;;;;;;;;;;23.50;48.30;;;;;;1548863;74;721;-62
2021/08/25 04:56:52;;;;;;;;;;;23.60;48.30;;;;;;1555055;75;786;-62
2021/08/25 04:58:54;;;;;;;;;;;23.50;48.30;;;;;;1553758;74;760;-62
2021/08/25 05:00:56;;;;;;;;;;;23.50;48.40;;;;;;1556077;74;767;-63
2021/08/25 05:02:58;;;;;;;;;;;23.50;48.40;;;;;;1544952;75;1948;-61
2021/08/25 05:05:00;;;;;;;;;;;23.50;48.40;;;;;;1548819;74;751;-61
2021/08/25 05:07:02;;;;;;;;;;;23.50;48.40;;;;;;1546328;74;639;-61
2021/08/25 05:09:03;;;;;;;;;;;23.60;48.40;;;;;;1552135;74;758;-62
2021/08/25 05:11:07;;;;;;;;;;;23.50;48.30;;;;;;1561014;74;762;-62
2021/08/25 05:13:09;;;;;;;;;;;23.60;48.30;;;;;;1547978;74;1157;-61
2021/08/25 05:15:11;;;;;;;;;;;23.50;48.40;;;;;;1547777;74;720;-60
2021/08/25 05:17:13;;;;;;;;;;;23.50;48.40;;;;;;1545497;74;794;-61
2021/08/25 05:19:15;;;;;;;;;;;23.60;48.40;;;;;;1555528;74;711;-61
2021/08/25 05:21:17;;;;;;;;;;;23.60;48.50;;;;;;1561964;74;1933;-60
2021/08/25 05:23:18;;;;;;;;;;;23.50;48.50;;;;;;1542281;74;1065;-60
2021/08/25 05:25:20;;;;;;;;;;;23.50;48.40;;;;;;1556026;74;733;-62
2021/08/25 05:27:22;;;;;;;;;;;23.50;48.40;;;;;;1557308;74;719;-61
2021/08/25 05:29:24;;;;;;;;;;;23.50;48.50;;;;;;1546635;74;778;-60
2021/08/25 05:31:26;;;;;;;;;;;23.50;48.50;;;;;;1548641;74;768;-62
2021/08/25 05:33:28;;;;;;;;;;;23.60;48.50;;;;;;1549654;74;1142;-63
2021/08/25 05:35:30;;;;;;;;;;;23.60;48.50;;;;;;1555185;74;712;-62
2021/08/25 05:37:31;;;;;;;;;;;23.60;48.40;;;;;;1551953;74;664;-62
2021/08/25 05:39:33;;;;;;;;;;;23.60;48.30;;;;;;1551502;74;733;-62
2021/08/25 05:41:35;;;;;;;;;;;23.60;48.30;;;;;;1547423;74;1933;-61
2021/08/25 05:43:37;;;;;;;;;;;23.60;48.30;;;;;;1562815;74;1133;-62
2021/08/25 05:45:39;;;;;;;;;;;23.60;48.30;;;;;;1576200;74;734;-61
2021/08/25 05:47:41;;;;;;;;;;;23.60;48.30;;;;;;1571726;74;759;-61
2021/08/25 05:49:43;;;;;;;;;;;23.60;48.30;;;;;;1550472;74;755;-61
2021/08/25 05:51:45;;;;;;;;;;;23.50;48.30;;;;;;1542369;75;756;-61
2021/08/25 05:53:48;;;;;;;;;;;23.50;48.30;;;;;;1561650;75;1136;-61
2021/08/25 05:55:49;;;;;;;;;;;23.50;48.20;;;;;;1556876;74;669;-61
2021/08/25 05:57:51;;;;;;;;;;;23.50;48.20;;;;;;1556056;74;800;-60
2021/08/25 05:59:53;;;;;;;;;;;23.60;48.30;;;;;;1538361;74;747;-60
2021/08/25 06:01:55;;;;;;;;;;;23.50;48.30;;;;;;1537532;75;1909;-61
2021/08/25 06:03:57;;;;;;;;;;;23.60;48.30;;;;;;1550289;74;1100;-60
2021/08/25 06:05:59;;;;;;;;;;;23.50;48.40;;;;;;1547469;75;876;-63
2021/08/25 06:08:01;;;;;;;;;;;23.60;48.40;;;;;;1541807;74;684;-63
2021/08/25 06:10:03;;;;;;;;;;;23.50;48.30;;;;;;1542342;74;693;-62
2021/08/25 06:12:05;;;;;;;;;;;23.50;48.40;;;;;;1544182;74;744;-63
2021/08/25 06:14:07;;;;;;;;;;;23.60;48.30;;;;;;1540740;74;1159;-61
2021/08/25 06:16:09;;;;;;;;;;;23.50;48.40;;;;;;1543087;74;725;-62
2021/08/25 06:18:11;;;;;;;;;;;23.60;48.40;;;;;;1538694;75;760;-62
2021/08/25 06:20:13;;;;;;;;;;;23.50;48.40;;;;;;1541798;74;816;-62
2021/08/25 06:22:15;;;;;;;;;;;23.50;48.30;;;;;;1543270;75;1924;-63
2021/08/25 06:24:17;;;;;;;;;;;23.60;48.30;;;;;;1541066;74;1114;-61
2021/08/25 06:26:19;;;;;;;;;;;23.50;48.30;;;;;;1541704;74;783;-61
2021/08/25 06:28:21;;;;;;;;;;;23.60;48.30;;;;;;1540109;74;798;-61
2021/08/25 06:30:22;;;;;;;;;;;23.60;48.30;;;;;;1538889;74;742;-61
2021/08/25 06:32:24;;;;;;;;;;;23.60;48.40;;;;;;1545775;74;812;-61
2021/08/25 06:34:26;;;;;;;;;;;23.60;48.40;;;;;;1551212;74;1066;-62
2021/08/25 06:36:28;;;;;;;;;;;23.60;48.30;;;;;;1544929;74;751;-62
2021/08/25 06:38:30;;;;;;;;;;;23.60;48.40;;;;;;1544998;74;807;-62
2021/08/25 06:40:32;;;;;;;;;;;23.60;48.30;;;;;;1557555;74;720;-62
2021/08/25 06:42:34;;;;;;;;;;;23.60;48.30;;;;;;1546412;75;1924;-61
2021/08/25 06:44:36;;;;;;;;;;;23.60;48.20;;;;;;1539038;74;773;-62
2021/08/25 06:46:38;;;;;;;;;;;23.60;48.20;;;;;;1551360;74;753;-61
2021/08/25 06:48:41;;;;;;;;;;;23.60;48.20;;;;;;1549517;74;794;-61
2021/08/25 06:50:43;;;;;;;;;;;23.60;48.20;;;;;;1551906;74;917;-61
2021/08/25 06:52:44;;;;;;;;;;;23.60;48.20;;;;;;1552496;74;1125;-61
2021/08/25 06:54:46;;;;;;;;;;;23.60;48.30;;;;;;1559074;74;706;-64
2021/08/25 06:56:48;;;;;;;;;;;23.60;48.10;;;;;;1551080;75;679;-63
2021/08/25 06:58:50;;;;;;;;;;;23.70;47.70;;;;;;1555985;74;773;-64
2021/08/25 07:00:52;;;;;;;;;;;23.70;47.70;;;;;;1550284;74;822;-64
2021/08/25 07:02:54;;;;;;;;;;;23.60;47.60;;;;;;1543594;75;1944;-63
2021/08/25 07:04:56;;;;;;;;;;;23.60;47.50;;;;;;1547306;75;801;-63
2021/08/25 07:06:58;;;;;;;;;;;23.60;47.70;;;;;;1547173;75;708;-63
2021/08/25 07:08:59;;;;;;;;;;;23.60;47.70;;;;;;1555784;74;706;-63
2021/08/25 07:11:01;;;;;;;;;;;23.60;47.70;;;;;;1557745;74;733;-63
2021/08/25 07:13:03;;;;;;;;;;;23.60;47.70;;;;;;1553316;74;1115;-63
2021/08/25 07:15:06;;;;;;;;;;;23.60;47.70;;;;;;1551229;74;799;-63
2021/08/25 07:17:07;;;;;;;;;;;23.60;47.80;;;;;;1554558;74;723;-63
2021/08/25 07:19:09;;;;;;;;;;;23.60;47.80;;;;;;1545373;74;758;-63
2021/08/25 07:21:11;;;;;;;;;;;23.50;47.80;;;;;;1552459;74;807;-63
2021/08/25 07:23:13;;;;;;;;;;;23.60;47.90;;;;;;1552677;74;1933;-63
2021/08/25 07:25:15;;;;;;;;;;;23.50;47.90;;;;;;1547651;74;688;-63
2021/08/25 07:27:17;;;;;;;;;;;23.50;48.00;;;;;;1552220;74;732;-64
2021/08/25 07:29:19;;;;;;;;;;;23.50;48.00;;;;;;1554375;74;735;-64
2021/08/25 07:31:21;;;;;;;;;;;23.50;48.00;;;;;;1556570;74;787;-63
2021/08/25 07:33:23;;;;;;;;;;;23.50;48.00;;;;;;1557197;74;1145;-63
2021/08/25 07:35:29;;;;;;;;;;;23.50;48.10;;;;;;1556280;74;673;-63
2021/08/25 07:37:28;;;;;;;;;;;23.50;48.10;;;;;;1554713;74;1642;-63
2021/08/25 07:39:30;;;;;;;;;;;23.50;48.10;;;;;;1549671;74;706;-63
2021/08/25 07:41:32;;;;;;;;;;;23.50;48.10;;;;;;1553176;74;741;-63
2021/08/25 07:43:34;;;;;;;;;;;23.50;48.10;;;;;;1551202;74;1910;-64
2021/08/25 07:45:37;;;;;;;;;;;23.50;48.10;;;;;;1554274;75;817;-63
2021/08/25 07:47:39;;;;;;;;;;;23.40;48.10;;;;;;1549600;75;961;-62
2021/08/25 07:49:41;;;;;;;;;;;23.50;48.30;;;;;;1546852;74;741;-64
2021/08/25 07:51:42;;;;;;;;;;;23.50;48.40;;;;;;1550206;74;725;-64
2021/08/25 07:53:44;;;;;;;;;;;23.50;48.60;;;;;;1560080;74;1128;-65
2021/08/25 07:55:46;;;;;;;;;;;23.50;48.50;;;;;;1536419;74;225379;-79
2021/08/25 07:57:48;;;;;;;;;;;23.50;48.60;;;;;;1533458;75;743;-80
2021/08/25 07:59:50;;;;;;;;;;;23.50;48.60;;;;;;1527370;75;1129;-78
2021/08/25 08:01:52;;;;;;;;;;;23.50;48.60;;;;;;1529712;75;713;-79
2021/08/25 08:03:54;;;;;;;;;;;23.50;48.60;;;;;;1528898;75;1941;-77
2021/08/25 08:05:56;;;;;;;;;;;23.50;48.60;;;;;;1532855;75;739;-78
2021/08/25 08:07:58;;;;;;;;;;;23.50;48.70;;;;;;1522671;75;810;-78
2021/08/25 08:10:01;;;;;;;;;;;23.50;48.60;;;;;;1539181;74;219687;-61
2021/08/25 08:12:03;;;;;;;;;;;23.60;48.60;;;;;;1530701;75;710;-60
2021/08/25 08:14:06;;;;;;;;;;;23.60;48.50;;;;;;1558742;75;1180;-62
2021/08/25 08:16:09;;;;;;;;;;;23.60;48.40;;;;;;1553586;75;711;-61
2021/08/25 08:18:15;;;;;;;;;;;23.60;48.40;;;;;;1564251;75;819;-60
2021/08/25 08:20:15;;;;;;;;;;;23.70;48.40;;;;;;1565297;75;1638;-62
2021/08/25 08:22:17;;;;;;;;;;;23.60;48.00;;;;;;1571791;75;786;-60
2021/08/25 08:24:19;;;;;;;;;;;23.60;47.90;;;;;;1560717;75;1930;-60
2021/08/25 08:26:20;;;;;;;;;;;23.60;47.80;;;;;;1562215;75;737;-61
2021/08/25 08:28:22;;;;;;;;;;;23.60;47.80;;;;;;1562455;75;733;-60
2021/08/25 08:30:24;;;;;;;;;;;23.60;47.70;;;;;;1560462;75;776;-60
2021/08/25 08:32:26;;;;;;;;;;;23.60;47.60;;;;;;1566379;75;756;-61
2021/08/25 08:34:28;;;;;;;;;;;23.60;47.40;;;;;;1567023;75;1077;-60
2021/08/25 08:36:30;;;;;;;;;;;23.50;47.30;;;;;;1567171;75;780;-59
2021/08/25 08:38:32;;;;;;;;;;;23.50;47.20;;;;;;1561857;75;804;-61
2021/08/25 08:40:34;;;;;;;;;;;23.50;47.60;;;;;;1568408;75;775;-62
2021/08/25 08:42:36;;;;;;;;;;;23.50;47.40;;;;;;1564813;75;1931;-61
2021/08/25 08:44:38;;;;;;;;;;;23.50;47.20;;;;;;1566202;75;708;-61
2021/08/25 08:46:41;;;;;;;;;;;23.50;47.10;;;;;;1558078;75;777;-62
2021/08/25 08:48:43;;;;;;;;;;;23.50;47.10;;;;;;1561737;75;718;-61
2021/08/25 08:50:49;;;;;;;;;;;23.50;47.10;;;;;;1569820;75;724;-61
2021/08/25 08:52:49;;;;;;;;;;;23.50;46.90;;;;;;1564613;75;1525;-61
2021/08/25 08:54:51;;;;;;;;;;;23.50;46.80;;;;;;1561610;75;736;-60
2021/08/25 08:56:53;;;;;;;;;;;23.50;46.80;;;;;;1554210;75;758;-62
2021/08/25 08:58:56;;;;;;;;;;;23.40;46.70;;;;;;1560353;75;732;-60
2021/08/25 09:00:58;;;;;;;;;;;23.40;46.80;;;;;;1562006;75;681;-60
2021/08/25 09:03:00;;;;;;;;;;;23.40;46.70;;;;;;1560156;75;1935;-62
2021/08/25 09:05:02;;;;;;;;;;;23.50;46.90;;;;;;1567348;75;865;-60
2021/08/25 09:07:04;;;;;;;;;;;23.40;46.80;;;;;;1531303;77;743;-60
2021/08/25 09:09:06;;;;;;;;;;;23.40;46.70;;;;;;1562472;75;798;-61
2021/08/25 09:11:09;;;;;;;;;;;23.50;46.70;;;;;;1560513;75;711;-60
2021/08/25 09:13:11;;;;;;;;;;;23.50;46.70;;;;;;1555392;76;1665;-61
2021/08/25 09:15:23;;;;;;;;;;;23.40;46.50;;;;;;1550256;75;789;-60
2021/08/25 09:17:30;;;;;;;;;;;23.50;46.70;;;;;;1540472;75;763;-60
2021/08/25 09:19:39;;;;;;;;;;;23.40;46.30;;;;;;1546906;76;1412;-59
2021/08/25 09:21:39;;;;;;;;;;;23.40;46.30;;;;;;1528392;75;1590;-61
2021/08/25 09:23:41;;;;;;;;;;;23.40;46.20;;;;;;1541618;76;1963;-61
2021/08/25 09:25:43;;;;;;;;;;;23.30;46.00;;;;;;1509258;77;1722;-60
2021/08/25 09:27:53;;;;;;;;;;;23.40;46.00;;;;;;1539334;75;874;-60
2021/08/25 09:29:57;;;;;;;;;;;23.40;46.00;;;;;;1544710;75;770;-60
2021/08/25 09:31:59;;;;;;;;;;;23.40;46.00;;;;;;1540649;75;810;-61
2021/08/25 09:34:01;;;;;;;;;;;23.40;46.00;;;;;;1539008;75;1134;-60
2021/08/25 09:36:04;;;;;;;;;;;23.30;45.80;;;;;;1541659;75;731;-61
2021/08/25 09:38:06;;;;;;;;;;;23.30;46.00;;;;;;1542964;75;653;-62
2021/08/25 09:40:10;;;;;;;;;;;23.40;45.90;;;;;;1552841;75;642;-60
2021/08/25 09:42:12;;;;;;;;;;;23.30;46.00;;;;;;1540498;75;1798;-60
2021/08/25 09:44:15;;;;;;;;;;;23.30;45.90;;;;;;1541720;75;1945;-61
2021/08/25 09:46:25;;;;;;;;;;;23.40;45.90;;;;;;1544978;75;741;-60
2021/08/25 09:48:40;;;;;;;;;;;23.30;45.90;;;;;;1544046;75;774;-60
2021/08/25 09:50:42;;;;;;;;;;;23.30;45.80;;;;;;1541944;75;786;-60
2021/08/25 09:52:44;;;;;;;;;;;23.30;45.90;;;;;;1511187;77;1371;-60
2021/08/25 09:54:59;;;;;;;;;;;23.30;45.80;;;;;;1544142;75;823;-59
2021/08/25 09:57:01;;;;;;;;;;;23.40;45.80;;;;;;1552405;75;725;-60
2021/08/25 09:59:03;;;;;;;;;;;23.40;45.90;;;;;;1546006;75;770;-61
2021/08/25 10:01:05;;;;;;;;;;;23.20;45.90;;;;;;1543828;76;754;-60
2021/08/25 10:03:07;;;;;;;;;;;23.20;46.00;;;;;;1544153;75;1941;-62
2021/08/25 10:05:09;;;;;;;;;;;23.30;46.10;;;;;;1544483;75;699;-60
2021/08/25 10:07:11;;;;;;;;;;;23.20;46.00;;;;;;1540237;75;755;-61
2021/08/25 10:09:13;;;;;;;;;;;23.30;46.10;;;;;;1544159;75;744;-60
2021/08/25 10:11:16;;;;;;;;;;;23.30;44.70;;;;;;1544863;75;797;-62
2021/08/25 10:13:18;;;;;;;;;;;23.20;44.40;;;;;;1538762;76;1174;-62
2021/08/25 10:15:35;;;;;;;;;;;23.10;43.50;;;;;;1539271;76;789;-63
2021/08/25 10:17:40;;;;;;;;;;;23.10;43.60;;;;;;1549676;75;964;-62
2021/08/25 10:19:42;;;;;;;;;;;23.00;43.60;;;;;;1549952;76;775;-60
2021/08/25 10:21:43;;;;;;;;;;;22.90;44.20;;;;;;1553191;75;713;-60
2021/08/25 10:23:59;;;;;;;;;;;22.90;43.50;;;;;;1545623;75;1938;-60
2021/08/25 10:26:05;;;;;;;;;;;22.80;43.60;;;;;;1552052;75;696;-62
2021/08/25 10:28:08;;;;;;;;;;;22.70;44.30;;;;;;1551289;75;769;-60
2021/08/25 10:30:11;;;;;;;;;;;22.60;43.40;;;;;;1542442;75;948;-59
2021/08/25 10:32:13;;;;;;;;;;;22.50;44.00;;;;;;1550324;75;803;-60
2021/08/25 10:34:15;;;;;;;;;;;22.50;43.50;;;;;;1556246;76;1152;-56
2021/08/25 10:36:22;;;;;;;;;;;22.50;42.90;;;;;;1556310;76;781;-57
2021/08/25 10:38:25;;;;;;;;;;;22.50;43.40;;;;;;1553443;75;759;-60
2021/08/25 10:40:33;;;;;;;;;;;22.50;43.90;;;;;;1550422;75;727;-60
2021/08/25 10:42:44;;;;;;;;;;;22.50;44.20;;;;;;1555329;75;1130;-57
2021/08/25 10:44:46;;;;;;;;;;;22.50;43.60;;;;;;1556686;75;1923;-58
2021/08/25 10:46:51;;;;;;;;;;;22.40;43.10;;;;;;1554809;75;781;-58
2021/08/25 10:48:55;;;;;;;;;;;22.30;43.30;;;;;;1554689;75;1130;-60
2021/08/25 10:50:58;;;;;;;;;;;22.30;43.30;;;;;;1553513;75;999;-60
2021/08/25 10:53:01;;;;;;;;;;;22.20;43.40;;;;;;1562882;75;1129;-60
2021/08/25 10:55:03;;;;;;;;;;;22.20;43.80;;;;;;1556845;76;1442;-60
2021/08/25 10:57:09;;;;;;;;;;;22.20;44.10;;;;;;1555042;75;728;-59
2021/08/25 10:59:11;;;;;;;;;;;22.00;43.30;;;;;;1552479;75;804;-57
2021/08/25 11:01:29;;;;;;;;;;;22.00;43.60;;;;;;1545449;75;744;-60
2021/08/25 11:03:37;;;;;;;;;;;21.90;43.90;;;;;;1586215;72;1195;-59
2021/08/25 11:05:38;;;;;;;;;;;22.00;43.70;;;;;;1560541;75;756;-57
2021/08/25 11:07:43;;;;;;;;;;;22.00;43.90;;;;;;1566036;75;779;-60
2021/08/25 11:09:48;;;;;;;;;;;22.00;43.80;;;;;;1553904;75;685;-58
2021/08/25 11:11:51;;;;;;;;;;;21.90;43.70;;;;;;1551075;75;991;-59
2021/08/25 11:13:52;;;;;;;;;;;22.00;43.80;;;;;;1553113;75;1170;-57
2021/08/25 11:15:54;;;;;;;;;;;21.90;43.30;;;;;;1565354;74;862;-61
2021/08/25 11:17:56;;;;;;;;;;;21.90;43.80;;;;;;1558733;75;682;-59
2021/08/25 11:20:02;;;;;;;;;;;21.90;43.80;;;;;;1545573;74;726;-58
2021/08/25 11:22:04;;;;;;;;;;;21.90;43.90;;;;;;1558497;75;1948;-59
2021/08/25 11:24:06;;;;;;;;;;;21.80;44.20;;;;;;1560701;75;1127;-56
2021/08/25 11:26:08;;;;;;;;;;;21.90;43.90;;;;;;1558622;75;719;-59
2021/08/25 11:28:10;;;;;;;;;;;21.90;44.00;;;;;;1557834;75;754;-59
2021/08/25 11:30:16;;;;;;;;;;;21.80;43.70;;;;;;1524860;77;743;-60
2021/08/25 11:32:18;;;;;;;;;;;21.90;44.20;;;;;;1557503;75;693;-58
2021/08/25 11:34:21;;;;;;;;;;;21.90;43.90;;;;;;1561680;75;1128;-59
2021/08/25 11:36:23;;;;;;;;;;;21.90;44.30;;;;;;1551420;75;704;-58
2021/08/25 11:38:25;;;;;;;;;;;21.90;43.60;;;;;;1558802;74;831;-56
2021/08/25 11:40:27;;;;;;;;;;;21.90;43.90;;;;;;1543053;75;794;-59
2021/08/25 11:42:29;;;;;;;;;;;21.90;43.80;;;;;;1563081;75;1917;-61
2021/08/25 11:44:35;;;;;;;;;;;21.90;43.70;;;;;;1552628;75;1126;-57
2021/08/25 11:46:37;;;;;;;;;;;21.90;43.60;;;;;;1565555;75;748;-59
2021/08/25 11:48:39;;;;;;;;;;;21.90;43.60;;;;;;1554811;75;818;-58
2021/08/25 11:50:43;;;;;;;;;;;21.90;43.90;;;;;;1561502;75;844;-59
2021/08/25 11:52:45;;;;;;;;;;;21.80;42.80;;;;;;1563885;75;1141;-60
2021/08/25 11:54:47;;;;;;;;;;;21.90;42.50;;;;;;1560276;75;759;-59
2021/08/25 11:56:48;;;;;;;;;;;21.90;42.90;;;;;;1554769;75;779;-59
2021/08/25 11:58:54;;;;;;;;;;;21.90;43.00;;;;;;1563472;75;751;-57
2021/08/25 12:00:54;;;;;;;;;;;22.00;42.70;;;;;;1552722;75;1644;-59
2021/08/25 12:02:57;;;;;;;;;;;21.90;42.80;;;;;;1546023;75;1946;-60
2021/08/25 12:05:00;;;;;;;;;;;22.00;43.40;;;;;;1551907;75;722;-57
2021/08/25 12:07:04;;;;;;;;;;;22.00;42.90;;;;;;1544710;75;1983;-60
2021/08/25 12:09:06;;;;;;;;;;;21.90;43.10;;;;;;1526224;76;1121;-59
2021/08/25 12:11:09;;;;;;;;;;;21.90;42.60;;;;;;1543210;75;738;-60